Abington, CT

6:08 PM EST on November 27, 2014 (GMT -0500)
Green State | Change Station
CLOSE
Current Station
Airport
Location: Providence,
Elevation: 62 ft
Nearby Weather Stations

Elev 62 ft 41.72 °N, 71.43 °W | Updated 17 minutes ago

Overcast
Overcast
35 °F
Feels Like 29 °F
N
7
Wind Variable Wind from NNW

Today
High -- | Low -- °F
--% Chance of Precip.
Yesterday
High -- | Low -- °F
Precip. -- in
6:51 AM 4:19 PM
Waxing Crescent, 33% visible
Pressure 29.99 in
Visibility 4.0 miles
Clouds Mostly Cloudy 2400 ft
Overcast 3200 ft
Windchill 29 °F
Dew Point 30 °F
Humidity 82%
Rainfall 0.01 in
Snow Depth Not available.
UV 0 out of 12
Pollen .10 out of 12
Air Quality Not available.
Flu Activity Not available.
METAR KPVD 272251Z 34006KT 4SM -SN BKN024 OVC032 02/M01 A2999 RMK AO2 SNB18 SLP154 P0000 T00171011

More Conditions Fewer Conditions

Pressure 29.99 in
Visibility 4.0 miles
Clouds Mostly Cloudy 2400 ft
Overcast 3200 ft
Windchill 29 °F
Dew Point 30 °F
Humidity 82%
Rainfall 0.01 in
Snow Depth Not available.
UV 0 out of 12
Pollen .10 out of 12
Air Quality Not available.
Flu Activity Not available.
METAR KPVD 272251Z 34006KT 4SM -SN BKN024 OVC032 02/M01 A2999 RMK AO2 SNB18 SLP154 P0000 T00171011

More Conditions Fewer Conditions

10-Day Weather Forecast

Almanac

Astronomy

Nov. 27, 2014 Rise Set
Actual Time
Civil Twilight
Nautical Twilight
Astronomical Twilight
Moon
Length of Visible Light
Length of Day
Tomorrow will be .
, % of the Moon is Illuminated

Today's Extremes

State Highs State Lows

Community

WunderPhotos

Upload Photos

1,774,134 photos uploaded!

WunderBlogs® & News

Nearby

Air Quality

  Air Quality AQ Index Pollutant
Not available.

Snow Depth

Station Depth Elevation

Earthquake Activity

City Distance Mag. Time & Date
Minimum magnitude displayed is 2.5.

Coastal Water Temperatures

Place Temperature

Nearby Weather Stations